Ore City, Texas
Current Conditions -  °F | °C
As of 8:15 AM on Saturday 25 Oct 2014 (Local Time) from KOSA Reporting Station
Clear Clear  
Wind Chill: 56°   Ceiling: Unl
Heat Index: 56°   Visibility: 4mi
Dew Point: 56°   Wind: 5mph
Humidity: 100%   Direction: 150°SSE
Pressure: 30.17"   Gusts: NA
Location:  32.8°N, 94.72°W
Report Text: KOSA 251315Z AUTO 15004KT 4SM CLR 14/14 A3017 RMK AO1 T01350135
Loading
Personal Weather Stations






























Interactive Weather Map
Tropical Storm Tracking
New forecast layout! Learn more

10-Day Weather Forecast

Advertisements
Track Severe Weather on mobile